sensor_id;sensor_type;location;lat;lon;timestamp;temperature;humidity
71382;DHT22;60099;45.660;13.804;2022-08-11T00:00:38;25.00;38.60
71382;DHT22;60099;45.660;13.804;2022-08-11T00:03:12;25.00;39.00
71382;DHT22;60099;45.660;13.804;2022-08-11T00:05:49;25.00;38.80
71382;DHT22;60099;45.660;13.804;2022-08-11T00:08:28;25.00;38.60
71382;DHT22;60099;45.660;13.804;2022-08-11T00:10:57;24.80;39.00
71382;DHT22;60099;45.660;13.804;2022-08-11T00:13:41;24.80;38.70
71382;DHT22;60099;45.660;13.804;2022-08-11T00:16:19;24.70;39.10
71382;DHT22;60099;45.660;13.804;2022-08-11T00:18:49;24.70;39.10
71382;DHT22;60099;45.660;13.804;2022-08-11T00:21:17;24.70;39.00
71382;DHT22;60099;45.660;13.804;2022-08-11T00:23:52;24.70;38.90
71382;DHT22;60099;45.660;13.804;2022-08-11T00:26:18;24.60;38.90
71382;DHT22;60099;45.660;13.804;2022-08-11T00:28:45;24.60;38.90
71382;DHT22;60099;45.660;13.804;2022-08-11T00:31:28;24.70;38.60
71382;DHT22;60099;45.660;13.804;2022-08-11T00:33:55;24.60;38.90
71382;DHT22;60099;45.660;13.804;2022-08-11T00:36:37;24.50;39.00
71382;DHT22;60099;45.660;13.804;2022-08-11T00:39:05;24.40;39.30
71382;DHT22;60099;45.660;13.804;2022-08-11T00:50:03;24.50;38.80
71382;DHT22;60099;45.660;13.804;2022-08-11T01:06:50;24.40;38.70
71382;DHT22;60099;45.660;13.804;2022-08-11T01:29:52;24.70;37.20
71382;DHT22;60099;45.660;13.804;2022-08-11T01:40:48;24.30;38.60
71382;DHT22;60099;45.660;13.804;2022-08-11T01:44:03;24.30;39.00
71382;DHT22;60099;45.660;13.804;2022-08-11T01:47:28;24.40;37.70
71382;DHT22;60099;45.660;13.804;2022-08-11T01:50:49;24.50;37.30
71382;DHT22;60099;45.660;13.804;2022-08-11T01:59:45;24.60;36.80
71382;DHT22;60099;45.660;13.804;2022-08-11T02:22:12;24.60;36.10
71382;DHT22;60099;45.660;13.804;2022-08-11T02:25:13;24.60;35.60
71382;DHT22;60099;45.660;13.804;2022-08-11T02:27:49;24.70;35.90
71382;DHT22;60099;45.660;13.804;2022-08-11T02:30:23;24.60;35.80
71382;DHT22;60099;45.660;13.804;2022-08-11T02:33:37;24.40;36.20
71382;DHT22;60099;45.660;13.804;2022-08-11T02:35:57;24.50;36.30
71382;DHT22;60099;45.660;13.804;2022-08-11T02:38:42;24.50;36.30
71382;DHT22;60099;45.660;13.804;2022-08-11T02:47:05;24.40;36.60
71382;DHT22;60099;45.660;13.804;2022-08-11T02:49:49;24.10;37.40
71382;DHT22;60099;45.660;13.804;2022-08-11T02:55:14;23.80;38.40
71382;DHT22;60099;45.660;13.804;2022-08-11T02:58:09;23.60;38.60
71382;DHT22;60099;45.660;13.804;2022-08-11T03:00:46;23.70;38.50
71382;DHT22;60099;45.660;13.804;2022-08-11T03:09:03;23.70;38.40
71382;DHT22;60099;45.660;13.804;2022-08-11T03:11:41;23.80;38.20
71382;DHT22;60099;45.660;13.804;2022-08-11T03:17:36;23.80;37.80
71382;DHT22;60099;45.660;13.804;2022-08-11T03:23:26;23.80;37.90
71382;DHT22;60099;45.660;13.804;2022-08-11T03:28:33;23.90;37.70
71382;DHT22;60099;45.660;13.804;2022-08-11T03:31:09;23.80;37.80
71382;DHT22;60099;45.660;13.804;2022-08-11T03:33:50;23.70;37.80
71382;DHT22;60099;45.660;13.804;2022-08-11T03:42:46;23.80;37.70
71382;DHT22;60099;45.660;13.804;2022-08-11T03:45:34;23.80;37.70
71382;DHT22;60099;45.660;13.804;2022-08-11T03:51:24;23.70;37.60
71382;DHT22;60099;45.660;13.804;2022-08-11T03:54:11;23.80;37.50
71382;DHT22;60099;45.660;13.804;2022-08-11T03:56:57;23.70;37.50
71382;DHT22;60099;45.660;13.804;2022-08-11T04:02:17;23.80;37.70
71382;DHT22;60099;45.660;13.804;2022-08-11T04:11:24;23.70;37.70
71382;DHT22;60099;45.660;13.804;2022-08-11T04:29:17;23.50;38.10
71382;DHT22;60099;45.660;13.804;2022-08-11T04:32:17;23.50;38.30
71382;DHT22;60099;45.660;13.804;2022-08-11T04:35:10;23.60;38.20
71382;DHT22;60099;45.660;13.804;2022-08-11T04:49:34;23.50;38.70
71382;DHT22;60099;45.660;13.804;2022-08-11T04:52:45;23.60;38.60
71382;DHT22;60099;45.660;13.804;2022-08-11T04:58:54;23.50;38.80
71382;DHT22;60099;45.660;13.804;2022-08-11T05:13:01;23.70;38.60
71382;DHT22;60099;45.660;13.804;2022-08-11T05:15:50;23.70;38.40
71382;DHT22;60099;45.660;13.804;2022-08-11T05:18:40;23.70;38.50
71382;DHT22;60099;45.660;13.804;2022-08-11T05:21:31;23.70;38.70
71382;DHT22;60099;45.660;13.804;2022-08-11T05:24:29;23.80;38.50
71382;DHT22;60099;45.660;13.804;2022-08-11T05:27:16;23.80;38.60
71382;DHT22;60099;45.660;13.804;2022-08-11T05:30:05;23.80;39.10
71382;DHT22;60099;45.660;13.804;2022-08-11T05:32:58;24.00;38.40
71382;DHT22;60099;45.660;13.804;2022-08-11T05:35:46;24.00;38.40
71382;DHT22;60099;45.660;13.804;2022-08-11T05:38:25;24.00;38.20
71382;DHT22;60099;45.660;13.804;2022-08-11T05:41:13;24.00;38.30
71382;DHT22;60099;45.660;13.804;2022-08-11T05:44:02;24.00;38.10
71382;DHT22;60099;45.660;13.804;2022-08-11T05:46:48;24.10;38.00
71382;DHT22;60099;45.660;13.804;2022-08-11T05:49:33;24.20;38.00
71382;DHT22;60099;45.660;13.804;2022-08-11T05:52:24;24.30;38.00
71382;DHT22;60099;45.660;13.804;2022-08-11T05:55:09;24.30;37.70
71382;DHT22;60099;45.660;13.804;2022-08-11T05:57:56;24.40;37.60
71382;DHT22;60099;45.660;13.804;2022-08-11T06:00:22;24.40;37.70
71382;DHT22;60099;45.660;13.804;2022-08-11T06:02:53;24.50;37.50
71382;DHT22;60099;45.660;13.804;2022-08-11T06:05:20;24.50;37.50
71382;DHT22;60099;45.660;13.804;2022-08-11T06:07:47;24.60;37.30
71382;DHT22;60099;45.660;13.804;2022-08-11T06:10:28;24.50;37.40
71382;DHT22;60099;45.660;13.804;2022-08-11T06:12:56;24.50;37.40
71382;DHT22;60099;45.660;13.804;2022-08-11T06:15:23;24.50;37.40
71382;DHT22;60099;45.660;13.804;2022-08-11T06:17:50;24.60;37.30
71382;DHT22;60099;45.660;13.804;2022-08-11T06:20:17;24.60;37.40
71382;DHT22;60099;45.660;13.804;2022-08-11T06:22:58;24.70;37.50
71382;DHT22;60099;45.660;13.804;2022-08-11T06:25:34;24.70;37.10
71382;DHT22;60099;45.660;13.804;2022-08-11T06:28:03;24.80;37.40
71382;DHT22;60099;45.660;13.804;2022-08-11T06:30:42;24.90;37.10
71382;DHT22;60099;45.660;13.804;2022-08-11T06:36:15;24.90;36.90
71382;DHT22;60099;45.660;13.804;2022-08-11T06:41:25;25.10;36.70
71382;DHT22;60099;45.660;13.804;2022-08-11T06:46:35;25.10;36.60
71382;DHT22;60099;45.660;13.804;2022-08-11T06:49:10;25.10;36.60
71382;DHT22;60099;45.660;13.804;2022-08-11T06:52:01;25.20;36.30
71382;DHT22;60099;45.660;13.804;2022-08-11T06:54:36;25.20;36.80
71382;DHT22;60099;45.660;13.804;2022-08-11T06:57:07;25.30;36.10
71382;DHT22;60099;45.660;13.804;2022-08-11T06:59:52;25.40;36.40
71382;DHT22;60099;45.660;13.804;2022-08-11T07:02:44;25.40;36.00
71382;DHT22;60099;45.660;13.804;2022-08-11T07:13:26;25.50;35.90
71382;DHT22;60099;45.660;13.804;2022-08-11T07:16:17;25.60;35.90
71382;DHT22;60099;45.660;13.804;2022-08-11T07:18:46;25.60;36.20
71382;DHT22;60099;45.660;13.804;2022-08-11T07:21:33;25.70;35.20
71382;DHT22;60099;45.660;13.804;2022-08-11T07:27:49;25.60;35.70
71382;DHT22;60099;45.660;13.804;2022-08-11T07:30:38;25.70;35.90
71382;DHT22;60099;45.660;13.804;2022-08-11T07:33:05;25.80;35.70
71382;DHT22;60099;45.660;13.804;2022-08-11T07:35:42;25.80;35.20
71382;DHT22;60099;45.660;13.804;2022-08-11T07:38:24;25.90;34.80
71382;DHT22;60099;45.660;13.804;2022-08-11T07:41:12;25.90;34.70
71382;DHT22;60099;45.660;13.804;2022-08-11T07:43:40;26.00;35.20
71382;DHT22;60099;45.660;13.804;2022-08-11T07:46:06;26.00;34.50
71382;DHT22;60099;45.660;13.804;2022-08-11T07:48:52;26.00;34.20
71382;DHT22;60099;45.660;13.804;2022-08-11T07:51:37;26.10;34.70
71382;DHT22;60099;45.660;13.804;2022-08-11T07:54:22;26.20;34.50
71382;DHT22;60099;45.660;13.804;2022-08-11T07:56:48;26.30;33.60
71382;DHT22;60099;45.660;13.804;2022-08-11T07:59:16;26.30;34.10
71382;DHT22;60099;45.660;13.804;2022-08-11T08:02:01;26.40;33.90
71382;DHT22;60099;45.660;13.804;2022-08-11T08:04:45;26.40;34.30
71382;DHT22;60099;45.660;13.804;2022-08-11T08:07:31;26.50;33.90
71382;DHT22;60099;45.660;13.804;2022-08-11T08:10:17;26.60;34.00
71382;DHT22;60099;45.660;13.804;2022-08-11T08:13:02;26.70;33.30
71382;DHT22;60099;45.660;13.804;2022-08-11T08:15:48;26.80;33.30
71382;DHT22;60099;45.660;13.804;2022-08-11T08:18:35;26.90;33.10
71382;DHT22;60099;45.660;13.804;2022-08-11T08:21:03;26.90;32.60
71382;DHT22;60099;45.660;13.804;2022-08-11T08:23:48;27.00;32.60
71382;DHT22;60099;45.660;13.804;2022-08-11T08:26:15;27.10;33.30
71382;DHT22;60099;45.660;13.804;2022-08-11T08:29:02;27.20;31.40
71382;DHT22;60099;45.660;13.804;2022-08-11T08:31:48;27.30;31.50
71382;DHT22;60099;45.660;13.804;2022-08-11T08:34:16;27.30;31.20
71382;DHT22;60099;45.660;13.804;2022-08-11T08:36:44;27.40;30.80
71382;DHT22;60099;45.660;13.804;2022-08-11T08:39:12;27.40;31.10
71382;DHT22;60099;45.660;13.804;2022-08-11T08:41:39;27.40;31.50
71382;DHT22;60099;45.660;13.804;2022-08-11T08:44:10;27.40;30.10
71382;DHT22;60099;45.660;13.804;2022-08-11T08:46:42;27.40;31.20
71382;DHT22;60099;45.660;13.804;2022-08-11T08:49:15;27.50;30.30
71382;DHT22;60099;45.660;13.804;2022-08-11T08:51:43;27.50;30.30
71382;DHT22;60099;45.660;13.804;2022-08-11T08:54:18;27.60;30.20
71382;DHT22;60099;45.660;13.804;2022-08-11T08:56:46;27.60;29.90
71382;DHT22;60099;45.660;13.804;2022-08-11T08:59:14;27.70;28.90
71382;DHT22;60099;45.660;13.804;2022-08-11T09:01:52;27.80;29.50
71382;DHT22;60099;45.660;13.804;2022-08-11T09:04:20;27.70;30.00
71382;DHT22;60099;45.660;13.804;2022-08-11T09:06:47;27.70;30.10
71382;DHT22;60099;45.660;13.804;2022-08-11T09:09:14;27.80;30.00
71382;DHT22;60099;45.660;13.804;2022-08-11T09:11:41;27.90;29.80
71382;DHT22;60099;45.660;13.804;2022-08-11T09:16:50;28.00;28.00
71382;DHT22;60099;45.660;13.804;2022-08-11T09:19:18;28.10;28.70
71382;DHT22;60099;45.660;13.804;2022-08-11T09:21:49;28.00;28.90
71382;DHT22;60099;45.660;13.804;2022-08-11T09:24:36;28.00;29.80
71382;DHT22;60099;45.660;13.804;2022-08-11T09:27:20;28.20;28.90
71382;DHT22;60099;45.660;13.804;2022-08-11T09:29:47;28.30;28.00
71382;DHT22;60099;45.660;13.804;2022-08-11T09:32:21;28.40;27.40
71382;DHT22;60099;45.660;13.804;2022-08-11T09:34:49;28.50;27.00
71382;DHT22;60099;45.660;13.804;2022-08-11T09:37:16;28.50;26.80
71382;DHT22;60099;45.660;13.804;2022-08-11T09:40:02;28.60;26.50
71382;DHT22;60099;45.660;13.804;2022-08-11T09:42:46;28.40;26.30
71382;DHT22;60099;45.660;13.804;2022-08-11T09:45:32;28.40;26.10
71382;DHT22;60099;45.660;13.804;2022-08-11T09:48:00;28.40;26.90
71382;DHT22;60099;45.660;13.804;2022-08-11T09:50:30;28.60;26.30
71382;DHT22;60099;45.660;13.804;2022-08-11T09:52:58;28.70;25.50
71382;DHT22;60099;45.660;13.804;2022-08-11T09:55:24;28.70;25.60
71382;DHT22;60099;45.660;13.804;2022-08-11T09:57:50;28.70;26.50
71382;DHT22;60099;45.660;13.804;2022-08-11T10:00:36;28.80;25.50
71382;DHT22;60099;45.660;13.804;2022-08-11T10:03:26;28.70;25.80
71382;DHT22;60099;45.660;13.804;2022-08-11T10:05:55;28.80;25.50
71382;DHT22;60099;45.660;13.804;2022-08-11T10:08:42;29.00;25.20
71382;DHT22;60099;45.660;13.804;2022-08-11T10:11:13;29.00;25.00
71382;DHT22;60099;45.660;13.804;2022-08-11T10:13:44;28.90;25.30
71382;DHT22;60099;45.660;13.804;2022-08-11T10:16:31;29.00;24.70
71382;DHT22;60099;45.660;13.804;2022-08-11T10:19:01;29.00;24.50
71382;DHT22;60099;45.660;13.804;2022-08-11T10:21:41;29.10;25.00
71382;DHT22;60099;45.660;13.804;2022-08-11T10:24:09;29.10;25.30
71382;DHT22;60099;45.660;13.804;2022-08-11T10:26:55;29.30;24.90
71382;DHT22;60099;45.660;13.804;2022-08-11T10:29:37;29.40;24.30
71382;DHT22;60099;45.660;13.804;2022-08-11T10:32:27;29.30;23.70
71382;DHT22;60099;45.660;13.804;2022-08-11T10:35:14;29.40;23.80
71382;DHT22;60099;45.660;13.804;2022-08-11T10:37:42;29.40;24.70
71382;DHT22;60099;45.660;13.804;2022-08-11T10:40:18;29.50;24.50
71382;DHT22;60099;45.660;13.804;2022-08-11T10:42:58;29.60;23.80
71382;DHT22;60099;45.660;13.804;2022-08-11T10:45:38;29.50;24.70
71382;DHT22;60099;45.660;13.804;2022-08-11T10:48:25;29.50;23.90
71382;DHT22;60099;45.660;13.804;2022-08-11T10:50:51;29.40;24.60
71382;DHT22;60099;45.660;13.804;2022-08-11T10:53:48;29.60;24.50
71382;DHT22;60099;45.660;13.804;2022-08-11T10:56:36;29.70;24.60
71382;DHT22;60099;45.660;13.804;2022-08-11T10:59:23;29.80;23.90
71382;DHT22;60099;45.660;13.804;2022-08-11T11:01:52;29.80;23.50
71382;DHT22;60099;45.660;13.804;2022-08-11T11:07:17;29.80;23.70
71382;DHT22;60099;45.660;13.804;2022-08-11T11:10:05;29.80;23.30
71382;DHT22;60099;45.660;13.804;2022-08-11T11:12:54;29.80;24.20
71382;DHT22;60099;45.660;13.804;2022-08-11T11:15:43;29.80;24.50
71382;DHT22;60099;45.660;13.804;2022-08-11T11:18:33;29.80;24.50
71382;DHT22;60099;45.660;13.804;2022-08-11T11:21:09;29.60;24.90
71382;DHT22;60099;45.660;13.804;2022-08-11T11:32:26;29.80;24.70
71382;DHT22;60099;45.660;13.804;2022-08-11T11:37:40;29.80;23.70
71382;DHT22;60099;45.660;13.804;2022-08-11T11:40:15;29.80;24.30
71382;DHT22;60099;45.660;13.804;2022-08-11T11:42:43;29.70;24.10
71382;DHT22;60099;45.660;13.804;2022-08-11T11:45:14;29.80;23.60
71382;DHT22;60099;45.660;13.804;2022-08-11T11:47:41;29.80;24.20
71382;DHT22;60099;45.660;13.804;2022-08-11T11:50:09;29.80;24.60
71382;DHT22;60099;45.660;13.804;2022-08-11T11:52:37;29.80;24.70
71382;DHT22;60099;45.660;13.804;2022-08-11T11:55:04;29.90;24.90
71382;DHT22;60099;45.660;13.804;2022-08-11T11:57:32;29.80;24.60
71382;DHT22;60099;45.660;13.804;2022-08-11T12:00:18;29.90;25.10
71382;DHT22;60099;45.660;13.804;2022-08-11T12:03:06;29.80;24.50
71382;DHT22;60099;45.660;13.804;2022-08-11T12:05:36;29.90;24.90
71382;DHT22;60099;45.660;13.804;2022-08-11T12:08:02;29.90;24.70
71382;DHT22;60099;45.660;13.804;2022-08-11T12:10:38;29.90;24.30
71382;DHT22;60099;45.660;13.804;2022-08-11T12:13:04;30.00;25.20
71382;DHT22;60099;45.660;13.804;2022-08-11T12:15:49;30.00;24.90
71382;DHT22;60099;45.660;13.804;2022-08-11T12:18:17;30.00;24.80
71382;DHT22;60099;45.660;13.804;2022-08-11T12:20:44;30.00;24.50
71382;DHT22;60099;45.660;13.804;2022-08-11T12:23:11;30.10;24.30
71382;DHT22;60099;45.660;13.804;2022-08-11T12:25:57;30.10;24.30
71382;DHT22;60099;45.660;13.804;2022-08-11T12:28:42;30.20;24.80
71382;DHT22;60099;45.660;13.804;2022-08-11T12:31:08;30.30;23.70
71382;DHT22;60099;45.660;13.804;2022-08-11T12:33:36;30.20;24.10
71382;DHT22;60099;45.660;13.804;2022-08-11T12:36:02;30.30;24.10
71382;DHT22;60099;45.660;13.804;2022-08-11T12:38:28;30.40;24.60
71382;DHT22;60099;45.660;13.804;2022-08-11T12:40:55;30.40;24.60
71382;DHT22;60099;45.660;13.804;2022-08-11T12:43:44;30.50;24.60
71382;DHT22;60099;45.660;13.804;2022-08-11T12:46:32;30.30;24.40
71382;DHT22;60099;45.660;13.804;2022-08-11T12:49:09;30.10;25.00
71382;DHT22;60099;45.660;13.804;2022-08-11T12:51:56;30.20;24.50
71382;DHT22;60099;45.660;13.804;2022-08-11T12:54:44;30.10;24.60
71382;DHT22;60099;45.660;13.804;2022-08-11T12:59:59;30.30;23.70
71382;DHT22;60099;45.660;13.804;2022-08-11T13:02:46;30.40;23.90
71382;DHT22;60099;45.660;13.804;2022-08-11T13:05:31;30.50;23.90
71382;DHT22;60099;45.660;13.804;2022-08-11T13:08:02;30.40;24.00
71382;DHT22;60099;45.660;13.804;2022-08-11T13:10:32;30.40;24.20
71382;DHT22;60099;45.660;13.804;2022-08-11T13:13:17;30.30;24.50
71382;DHT22;60099;45.660;13.804;2022-08-11T13:15:47;30.20;24.50
71382;DHT22;60099;45.660;13.804;2022-08-11T13:18:21;30.30;24.40
71382;DHT22;60099;45.660;13.804;2022-08-11T13:20:52;30.40;24.60
71382;DHT22;60099;45.660;13.804;2022-08-11T13:23:19;30.40;24.10
71382;DHT22;60099;45.660;13.804;2022-08-11T13:25:45;30.30;24.10
71382;DHT22;60099;45.660;13.804;2022-08-11T13:28:11;30.20;24.70
71382;DHT22;60099;45.660;13.804;2022-08-11T13:30:38;30.20;24.30
71382;DHT22;60099;45.660;13.804;2022-08-11T13:33:24;30.10;24.10
71382;DHT22;60099;45.660;13.804;2022-08-11T13:35:53;30.10;24.00
71382;DHT22;60099;45.660;13.804;2022-08-11T13:38:20;30.10;24.30
71382;DHT22;60099;45.660;13.804;2022-08-11T13:40:47;30.20;24.10
71382;DHT22;60099;45.660;13.804;2022-08-11T13:43:14;30.30;23.80
71382;DHT22;60099;45.660;13.804;2022-08-11T13:45:42;30.40;23.80
71382;DHT22;60099;45.660;13.804;2022-08-11T13:48:16;30.50;23.50
71382;DHT22;60099;45.660;13.804;2022-08-11T13:50:44;30.60;23.80
71382;DHT22;60099;45.660;13.804;2022-08-11T13:53:29;30.80;23.70
71382;DHT22;60099;45.660;13.804;2022-08-11T13:55:57;30.80;23.10
71382;DHT22;60099;45.660;13.804;2022-08-11T13:58:25;30.80;23.40
71382;DHT22;60099;45.660;13.804;2022-08-11T14:00:52;30.90;23.40
71382;DHT22;60099;45.660;13.804;2022-08-11T14:03:26;30.80;23.30
71382;DHT22;60099;45.660;13.804;2022-08-11T14:05:53;30.90;23.50
71382;DHT22;60099;45.660;13.804;2022-08-11T14:08:25;30.90;23.20
71382;DHT22;60099;45.660;13.804;2022-08-11T14:10:53;30.90;23.50
71382;DHT22;60099;45.660;13.804;2022-08-11T14:13:39;30.80;22.90
71382;DHT22;60099;45.660;13.804;2022-08-11T14:16:10;30.80;23.20
71382;DHT22;60099;45.660;13.804;2022-08-11T14:18:42;30.80;23.90
71382;DHT22;60099;45.660;13.804;2022-08-11T14:21:13;30.80;24.00
71382;DHT22;60099;45.660;13.804;2022-08-11T14:23:57;30.80;23.80
71382;DHT22;60099;45.660;13.804;2022-08-11T14:26:24;30.90;24.30
71382;DHT22;60099;45.660;13.804;2022-08-11T14:31:26;30.90;23.40
71382;DHT22;60099;45.660;13.804;2022-08-11T14:33:54;31.00;23.40
71382;DHT22;60099;45.660;13.804;2022-08-11T14:36:23;31.00;23.30
71382;DHT22;60099;45.660;13.804;2022-08-11T14:38:50;31.10;22.90
71382;DHT22;60099;45.660;13.804;2022-08-11T14:41:18;31.20;22.10
71382;DHT22;60099;45.660;13.804;2022-08-11T14:44:04;31.00;22.40
71382;DHT22;60099;45.660;13.804;2022-08-11T14:46:49;31.00;22.50
71382;DHT22;60099;45.660;13.804;2022-08-11T14:49:35;31.10;22.40
71382;DHT22;60099;45.660;13.804;2022-08-11T14:52:06;31.10;22.80
71382;DHT22;60099;45.660;13.804;2022-08-11T14:54:33;31.10;22.60
71382;DHT22;60099;45.660;13.804;2022-08-11T14:57:20;31.20;22.70
71382;DHT22;60099;45.660;13.804;2022-08-11T14:59:48;31.20;22.80
71382;DHT22;60099;45.660;13.804;2022-08-11T15:02:15;31.10;23.00
71382;DHT22;60099;45.660;13.804;2022-08-11T15:05:03;31.00;22.60
71382;DHT22;60099;45.660;13.804;2022-08-11T15:07:31;30.90;23.00
71382;DHT22;60099;45.660;13.804;2022-08-11T15:10:02;30.70;23.00
71382;DHT22;60099;45.660;13.804;2022-08-11T15:12:28;30.70;23.40
71382;DHT22;60099;45.660;13.804;2022-08-11T15:14:56;30.80;23.10
71382;DHT22;60099;45.660;13.804;2022-08-11T15:17:41;30.80;22.90
71382;DHT22;60099;45.660;13.804;2022-08-11T15:20:14;30.90;23.30
71382;DHT22;60099;45.660;13.804;2022-08-11T15:22:59;30.90;23.70
71382;DHT22;60099;45.660;13.804;2022-08-11T15:25:52;30.90;23.80
71382;DHT22;60099;45.660;13.804;2022-08-11T15:28:19;30.80;23.90
71382;DHT22;60099;45.660;13.804;2022-08-11T15:31:05;30.80;23.80
71382;DHT22;60099;45.660;13.804;2022-08-11T15:34:07;30.80;23.70
71382;DHT22;60099;45.660;13.804;2022-08-11T15:36:56;30.80;24.00
71382;DHT22;60099;45.660;13.804;2022-08-11T15:42:37;30.70;23.50
71382;DHT22;60099;45.660;13.804;2022-08-11T15:45:24;30.70;23.30
71382;DHT22;60099;45.660;13.804;2022-08-11T15:48:11;30.70;23.60
71382;DHT22;60099;45.660;13.804;2022-08-11T15:50:45;30.70;23.80
71382;DHT22;60099;45.660;13.804;2022-08-11T15:55:48;30.60;23.70
71382;DHT22;60099;45.660;13.804;2022-08-11T15:58:15;30.60;22.90
71382;DHT22;60099;45.660;13.804;2022-08-11T16:01:02;30.60;22.80
71382;DHT22;60099;45.660;13.804;2022-08-11T16:03:56;30.60;22.80
71382;DHT22;60099;45.660;13.804;2022-08-11T16:09:19;30.50;23.60
71382;DHT22;60099;45.660;13.804;2022-08-11T16:11:47;30.40;23.40
71382;DHT22;60099;45.660;13.804;2022-08-11T16:14:15;30.40;23.90
71382;DHT22;60099;45.660;13.804;2022-08-11T16:17:00;30.40;23.40
71382;DHT22;60099;45.660;13.804;2022-08-11T16:19:28;30.40;23.50
71382;DHT22;60099;45.660;13.804;2022-08-11T16:22:01;30.40;23.00
71382;DHT22;60099;45.660;13.804;2022-08-11T16:24:28;30.30;23.60
71382;DHT22;60099;45.660;13.804;2022-08-11T16:26:56;30.30;23.80
71382;DHT22;60099;45.660;13.804;2022-08-11T16:29:23;30.20;23.90
71382;DHT22;60099;45.660;13.804;2022-08-11T16:31:50;30.10;23.90
71382;DHT22;60099;45.660;13.804;2022-08-11T16:34:36;30.10;23.40
71382;DHT22;60099;45.660;13.804;2022-08-11T16:37:22;30.10;23.30
71382;DHT22;60099;45.660;13.804;2022-08-11T16:40:08;30.00;23.40
71382;DHT22;60099;45.660;13.804;2022-08-11T16:42:36;30.00;23.30
71382;DHT22;60099;45.660;13.804;2022-08-11T16:45:22;30.00;24.20
71382;DHT22;60099;45.660;13.804;2022-08-11T16:48:07;29.90;23.40
71382;DHT22;60099;45.660;13.804;2022-08-11T16:50:34;29.90;23.30
71382;DHT22;60099;45.660;13.804;2022-08-11T16:53:00;29.90;23.30
71382;DHT22;60099;45.660;13.804;2022-08-11T16:55:27;29.90;23.00
71382;DHT22;60099;45.660;13.804;2022-08-11T16:57:59;29.90;23.10
71382;DHT22;60099;45.660;13.804;2022-08-11T17:00:44;29.80;23.20
71382;DHT22;60099;45.660;13.804;2022-08-11T17:03:12;29.80;23.40
71382;DHT22;60099;45.660;13.804;2022-08-11T17:05:59;29.80;23.20
71382;DHT22;60099;45.660;13.804;2022-08-11T17:08:51;29.80;23.40
71382;DHT22;60099;45.660;13.804;2022-08-11T17:11:44;29.70;23.50
71382;DHT22;60099;45.660;13.804;2022-08-11T17:14:54;29.70;24.60
71382;DHT22;60099;45.660;13.804;2022-08-11T17:17:29;29.60;24.30
71382;DHT22;60099;45.660;13.804;2022-08-11T17:20:02;29.60;24.40
71382;DHT22;60099;45.660;13.804;2022-08-11T17:22:33;29.60;24.40
71382;DHT22;60099;45.660;13.804;2022-08-11T17:25:19;29.60;24.10
71382;DHT22;60099;45.660;13.804;2022-08-11T17:27:47;29.60;24.10
71382;DHT22;60099;45.660;13.804;2022-08-11T17:30:15;29.50;24.30
71382;DHT22;60099;45.660;13.804;2022-08-11T17:32:50;29.50;24.20
71382;DHT22;60099;45.660;13.804;2022-08-11T17:35:37;29.50;24.10
71382;DHT22;60099;45.660;13.804;2022-08-11T17:40:39;29.50;24.30
71382;DHT22;60099;45.660;13.804;2022-08-11T17:43:26;29.40;24.40
71382;DHT22;60099;45.660;13.804;2022-08-11T17:46:12;29.40;24.50
71382;DHT22;60099;45.660;13.804;2022-08-11T17:48:56;29.40;24.50
71382;DHT22;60099;45.660;13.804;2022-08-11T17:51:22;29.40;24.50
71382;DHT22;60099;45.660;13.804;2022-08-11T17:54:08;29.30;24.60
71382;DHT22;60099;45.660;13.804;2022-08-11T17:56:53;29.30;24.80
71382;DHT22;60099;45.660;13.804;2022-08-11T17:59:38;29.20;25.10
71382;DHT22;60099;45.660;13.804;2022-08-11T18:02:29;29.10;25.30
71382;DHT22;60099;45.660;13.804;2022-08-11T18:05:18;29.20;25.20
71382;DHT22;60099;45.660;13.804;2022-08-11T18:07:45;29.20;25.20
71382;DHT22;60099;45.660;13.804;2022-08-11T18:10:32;29.10;25.20
71382;DHT22;60099;45.660;13.804;2022-08-11T18:13:19;29.10;25.40
71382;DHT22;60099;45.660;13.804;2022-08-11T18:16:04;29.10;25.50
71382;DHT22;60099;45.660;13.804;2022-08-11T18:18:48;29.10;25.60
71382;DHT22;60099;45.660;13.804;2022-08-11T18:21:34;29.00;26.20
71382;DHT22;60099;45.660;13.804;2022-08-11T18:24:21;29.00;26.00
71382;DHT22;60099;45.660;13.804;2022-08-11T18:27:09;28.90;26.80
71382;DHT22;60099;45.660;13.804;2022-08-11T18:29:55;28.70;26.90
71382;DHT22;60099;45.660;13.804;2022-08-11T18:32:41;28.60;27.00
71382;DHT22;60099;45.660;13.804;2022-08-11T18:35:26;28.50;27.30
71382;DHT22;60099;45.660;13.804;2022-08-11T18:38:12;28.50;27.40
71382;DHT22;60099;45.660;13.804;2022-08-11T18:40:58;28.50;27.30
71382;DHT22;60099;45.660;13.804;2022-08-11T18:43:46;28.40;27.40
71382;DHT22;60099;45.660;13.804;2022-08-11T18:46:33;28.40;27.30
71382;DHT22;60099;45.660;13.804;2022-08-11T18:49:22;28.40;27.50
71382;DHT22;60099;45.660;13.804;2022-08-11T18:52:07;28.40;27.40
71382;DHT22;60099;45.660;13.804;2022-08-11T18:54:54;28.40;27.10
71382;DHT22;60099;45.660;13.804;2022-08-11T18:57:40;28.40;27.20
71382;DHT22;60099;45.660;13.804;2022-08-11T19:00:26;28.40;27.10
71382;DHT22;60099;45.660;13.804;2022-08-11T19:03:11;28.30;27.30
71382;DHT22;60099;45.660;13.804;2022-08-11T19:06:01;28.30;27.50
71382;DHT22;60099;45.660;13.804;2022-08-11T19:08:53;28.40;27.60
71382;DHT22;60099;45.660;13.804;2022-08-11T19:11:40;28.40;27.50
71382;DHT22;60099;45.660;13.804;2022-08-11T19:14:28;28.30;27.80
71382;DHT22;60099;45.660;13.804;2022-08-11T19:17:14;28.30;27.50
71382;DHT22;60099;45.660;13.804;2022-08-11T19:20:01;28.30;27.90
71382;DHT22;60099;45.660;13.804;2022-08-11T19:22:47;28.30;28.00
71382;DHT22;60099;45.660;13.804;2022-08-11T19:25:32;28.30;28.00
71382;DHT22;60099;45.660;13.804;2022-08-11T19:28:19;28.30;28.00
71382;DHT22;60099;45.660;13.804;2022-08-11T19:31:07;28.20;28.10
71382;DHT22;60099;45.660;13.804;2022-08-11T19:33:51;28.20;27.90
71382;DHT22;60099;45.660;13.804;2022-08-11T19:36:37;28.20;28.50
71382;DHT22;60099;45.660;13.804;2022-08-11T19:39:22;28.00;28.30
71382;DHT22;60099;45.660;13.804;2022-08-11T19:42:08;28.00;28.40
71382;DHT22;60099;45.660;13.804;2022-08-11T19:44:54;28.00;28.40
71382;DHT22;60099;45.660;13.804;2022-08-11T19:47:40;28.00;28.50
71382;DHT22;60099;45.660;13.804;2022-08-11T19:50:25;28.00;28.60
71382;DHT22;60099;45.660;13.804;2022-08-11T19:53:11;28.10;28.60
71382;DHT22;60099;45.660;13.804;2022-08-11T19:55:57;28.00;28.60
71382;DHT22;60099;45.660;13.804;2022-08-11T19:58:42;27.90;29.00